الصفحة الرئيسية
METAR-TAF:

METAR-TAF

مطار :

تيجوسيجالبا, هندوراس

دائرة عرض: 14-03N, خط طول: 087-13W, ارتفاع: 994 متر

مراقبة الطقس الحالي

تاريخ ووقت الإصدار 52 دقيقة قبل الساعة 09:00UTC
ريح 6 عقدة من الشمال
درجة الحرارة 20°درجة مئوية
الرطوبة 83%
ضغط 1018 hPa
الرؤية 10 كم أو أكثر
غيوم مفككة على ارتفاع 2800 قدم
غيوم متفرقة على ارتفاع 9000 قدم

METAR: MHTG 250900Z 35006KT 9999 BKN028 SCT090 20/17 Q1018 A3006 NOSIG

زمن: 03:52 (09:52 UTC)

توقعات

تاريخ ووقت الإصدار 5ساعات و 27 دقيقة قبل الساعة 04:25UTC
التوقعات صالحة من25 الساعة 06 UTC إلى 26 الساعة 06 UTC
ريح عقدة من الشمال
الرؤية 10 كم أو أكثر
غيوم متفرقة على ارتفاع 2800 قدم
أصبح
من 25 الساعة 15 UTC إلى 25 الساعة 17 UTC
ريح 8 عقدة من الشرق
غيوم قليلة على ارتفاع 2800 قدم, مزنة ركامية.
غيوم متفرقة على ارتفاع 3200 قدم, مزن ركامية عمودية.
أصبح
من 26 الساعة 03 UTC إلى 26 الساعة 05 UTC
ريح عقدة من الشمال
غيوم قليلة على ارتفاع 1000 قدم
غيوم متفرقة على ارتفاع 2800 قدم

TAF: MHTG 250425Z 2506/2606 00000KT 9999 FFEW010 SCT028 TX29/2520Z TN17/2512Z BECMG 2515/2517 09008KT FEW028CB SCT032TCU BECMG 2603/2605 00000KT FEW010 SCT028

أرصاد الطقس والتوقعات من أكثر من 4000 مطار (تقارير الطقس للمطار METAR والتنبؤ بالطقس بالمطارTAF).

المحطات المتاحة هي النقط الصفراء والحمراء على الخريطة.

حرك المؤشر فوق النقطة لمعرفة اسم المحطة.

ثم انقر لمعرفة أرصاد وتوقعات الطقس.

لتغيير الخارطة: اضغط على الأزرار الخضراء مع رمز الصليب الأسود للتكبير. على الزر الأخضر مع شرطة للتصغير، أو على الأسهم الخضراء للخرائط المجاورة.


METAR-TAF: